Varzea da Roca, Brazil
Current Conditions -  °F | °C
As of 12:00 PM on Sunday 21 Dec 2014 (Local Time) from SBSV Reporting Station
Scattered Clouds Scattered Clouds  
Wind Chill: 84°   Ceiling: Unl
Heat Index: 90°   Visibility: 6mi
Dew Point: 72°   Wind: 15mph
Humidity: 66%   Direction: 100°E
Pressure: 29.97"   Gusts: NA
Location:  11.61°S, 40.14°W
Report Text: SBSV 211500Z 10013KT 9999 SCT017 SCT070 29/22 Q1015
Loading
Personal Weather Stations






























Interactive Weather Map New forecast layout! Learn more

10-Day Weather Forecast

Advertisements
Track Severe Weather on mobile